aviador You're here:

PABT Decoded Metar

BETTLES in AK, USA
Report Time2018-06-17 21:00:00
UTC Time2018-06-17 21:38:28
Flight Rules vfr VFR
WindCalm
Visibility9999 m
Phenomena:N/A
Clouds:Few 010 Hf
Scattered 022 Hf
Broken 050 Hf
Expected CloudBase > 1,600 ft AGL from Temp-Dew spread
Ceiling5,000 ft
Temp13°C (ISA -1)
Dew Point09°C (77% RH)
AAT12.8°C
QNH1008 hPa
Density Alt879 ft
Elevation640 ft
Report Wrong Elevation
Raw Report
PABT 172100Z 00000KT 10SM FEW010 SCT022 BKN050 13/09 A2976=

Extra information for PABT:More info

Metar Taf Metar & Taf Last 4 Metars F.Rules Stats Wind Profile Meteogram Temp Stats Airport Information Weather charts Add Link Nearby VenuesMetar ALERT Operation Metar Decoded Social comments

AIRNAV info for PABT